Time;durP1;ratioP1;P1;durP2;ratioP2;P2;SDS_P1;SDS_P2;PMS_P1;PMS_P2;Temp;Humidity;BMP_temperature;BMP_pressure;BME280_temperature;BME280_humidity;BME280_pressure;Samples;Min_cycle;Max_cycle;Signal;HPM_P1;HPM_P2
2024/01/21 00:00:25;;;;;;;;;;;0.60;99.90;;;;;;5088474;28;20314;-72
2024/01/21 00:02:50;;;;;;;;;;;0.60;99.90;;;;;;5090931;28;20482;-73
2024/01/21 00:05:16;;;;;;;;;;;0.60;99.90;;;;;;5096782;28;19924;-72
2024/01/21 00:07:44;;;;;;;;;;;0.60;99.90;;;;;;5107843;28;19992;-72
2024/01/21 00:10:10;;;;;;;;;;;0.60;99.90;;;;;;5105552;28;19924;-72
2024/01/21 00:12:36;;;;;;;;;;;0.60;99.90;;;;;;5107051;28;19984;-72
2024/01/21 00:15:02;;;;;;;;;;;0.60;99.90;;;;;;5107987;28;19924;-72
2024/01/21 00:17:27;;;;;;;;;;;0.70;99.90;;;;;;5107620;28;19930;-72
2024/01/21 00:19:53;;;;;;;;;;;0.70;99.90;;;;;;5108045;28;19928;-72
2024/01/21 00:22:18;;;;;;;;;;;0.70;99.90;;;;;;5107123;28;19934;-72
2024/01/21 00:24:44;;;;;;;;;;;0.70;99.90;;;;;;5109150;28;19977;-72
2024/01/21 00:27:09;;;;;;;;;;;0.70;99.90;;;;;;5107463;28;20298;-72
2024/01/21 00:29:35;;;;;;;;;;;0.80;99.90;;;;;;5108478;28;20344;-72
2024/01/21 00:32:00;;;;;;;;;;;0.80;99.90;;;;;;5107099;28;20381;-72
2024/01/21 00:34:26;;;;;;;;;;;0.80;99.90;;;;;;5108759;28;20294;-72
2024/01/21 00:36:51;;;;;;;;;;;0.80;99.90;;;;;;5112384;28;20378;-72
2024/01/21 00:39:17;;;;;;;;;;;0.90;99.90;;;;;;5112948;28;19927;-72
2024/01/21 00:41:42;;;;;;;;;;;0.80;99.90;;;;;;5112361;28;19920;-72
2024/01/21 00:44:08;;;;;;;;;;;0.80;99.90;;;;;;5112290;28;20011;-72
2024/01/21 00:46:38;;;;;;;;;;;0.80;99.90;;;;;;5111065;28;19924;-72
2024/01/21 00:49:04;;;;;;;;;;;0.80;99.90;;;;;;5112263;28;19924;-73
2024/01/21 00:51:30;;;;;;;;;;;0.80;99.90;;;;;;5112514;28;19924;-73
2024/01/21 00:53:55;;;;;;;;;;;0.80;99.90;;;;;;5112686;28;20014;-74
2024/01/21 00:56:21;;;;;;;;;;;0.80;99.90;;;;;;5113020;28;19928;-73
2024/01/21 00:58:46;;;;;;;;;;;0.80;99.90;;;;;;5112670;28;19933;-73
2024/01/21 01:01:12;;;;;;;;;;;0.80;99.90;;;;;;5111372;28;19926;-73
2024/01/21 01:03:38;;;;;;;;;;;0.70;99.90;;;;;;5112268;28;19981;-73
2024/01/21 01:06:04;;;;;;;;;;;0.70;99.90;;;;;;5111488;28;20241;-71
2024/01/21 01:08:29;;;;;;;;;;;0.70;99.90;;;;;;5111492;28;19919;-70
2024/01/21 01:10:55;;;;;;;;;;;0.70;99.90;;;;;;5099125;28;19931;-73
2024/01/21 01:13:20;;;;;;;;;;;1.20;99.90;;;;;;5101269;28;19924;-73
2024/01/21 01:15:46;;;;;;;;;;;0.70;99.90;;;;;;5108848;28;20298;-73
2024/01/21 01:18:13;;;;;;;;;;;0.60;99.90;;;;;;5110474;28;19946;-73
2024/01/21 01:20:39;;;;;;;;;;;0.70;99.90;;;;;;5112097;28;19930;-72
2024/01/21 01:23:05;;;;;;;;;;;0.60;99.90;;;;;;5110613;28;19928;-71
2024/01/21 01:25:31;;;;;;;;;;;0.60;99.90;;;;;;5111963;28;19943;-73
2024/01/21 01:27:56;;;;;;;;;;;0.60;99.90;;;;;;5110904;28;19923;-71
2024/01/21 01:30:22;;;;;;;;;;;0.60;99.90;;;;;;5109612;28;19928;-71
2024/01/21 01:32:48;;;;;;;;;;;0.60;99.90;;;;;;5111849;28;20582;-71
2024/01/21 01:35:13;;;;;;;;;;;0.60;99.90;;;;;;5111521;28;20281;-71
2024/01/21 01:37:39;;;;;;;;;;;0.60;99.90;;;;;;5110371;28;19977;-71
2024/01/21 01:40:06;;;;;;;;;;;0.60;99.90;;;;;;5110548;28;20014;-71
2024/01/21 01:42:32;;;;;;;;;;;0.60;99.90;;;;;;5111018;28;20339;-71
2024/01/21 01:44:58;;;;;;;;;;;0.60;99.90;;;;;;5109901;28;20125;-71
2024/01/21 01:47:23;;;;;;;;;;;0.60;99.90;;;;;;5092872;28;19924;-71
2024/01/21 01:49:49;;;;;;;;;;;0.60;99.90;;;;;;5099886;28;20014;-71
2024/01/21 01:52:15;;;;;;;;;;;1.40;99.90;;;;;;5110434;28;19930;-71
2024/01/21 01:54:42;;;;;;;;;;;2.30;99.90;;;;;;5112754;28;19930;-71
2024/01/21 01:57:08;;;;;;;;;;;0.60;99.90;;;;;;5101458;28;19928;-71
2024/01/21 01:59:34;;;;;;;;;;;0.70;99.90;;;;;;5111036;28;19967;-71
2024/01/21 02:02:00;;;;;;;;;;;0.70;99.90;;;;;;5109889;28;19990;-71
2024/01/21 02:04:25;;;;;;;;;;;0.70;99.90;;;;;;5109409;28;19931;-71
2024/01/21 02:06:52;;;;;;;;;;;2.60;99.90;;;;;;5109541;28;19923;-71
2024/01/21 02:09:18;;;;;;;;;;;0.70;99.90;;;;;;5111437;28;19928;-71
2024/01/21 02:11:43;;;;;;;;;;;0.70;99.90;;;;;;5100025;28;19969;-71
2024/01/21 02:14:09;;;;;;;;;;;0.70;99.90;;;;;;5090043;28;19928;-72
2024/01/21 02:16:35;;;;;;;;;;;0.70;99.90;;;;;;5090600;28;19967;-71
2024/01/21 02:19:03;;;;;;;;;;;0.70;99.90;;;;;;5089240;28;19971;-72
2024/01/21 02:21:29;;;;;;;;;;;0.70;99.90;;;;;;5090342;28;19932;-71
2024/01/21 02:23:54;;;;;;;;;;;0.80;99.90;;;;;;5110323;28;19924;-71
2024/01/21 02:26:20;;;;;;;;;;;0.70;99.90;;;;;;5110609;28;19923;-71
2024/01/21 02:28:45;;;;;;;;;;;0.70;99.80;;;;;;5110838;28;20011;-71
2024/01/21 02:31:11;;;;;;;;;;;0.70;99.90;;;;;;5109266;28;20298;-71
2024/01/21 02:33:36;;;;;;;;;;;0.70;99.90;;;;;;5109823;28;19923;-70
2024/01/21 02:36:02;;;;;;;;;;;0.70;99.90;;;;;;5109679;28;20282;-71
2024/01/21 02:38:28;;;;;;;;;;;0.70;99.90;;;;;;5109459;28;19978;-72
2024/01/21 02:40:53;;;;;;;;;;;1.20;99.90;;;;;;5109778;28;19931;-71
2024/01/21 02:43:19;;;;;;;;;;;0.70;99.90;;;;;;5110965;28;20006;-71
2024/01/21 02:45:44;;;;;;;;;;;0.70;99.70;;;;;;5108015;28;20009;-71
2024/01/21 02:48:10;;;;;;;;;;;0.70;99.80;;;;;;5108742;28;19924;-72
2024/01/21 02:50:35;;;;;;;;;;;0.70;99.80;;;;;;5110713;28;19950;-71
2024/01/21 02:53:01;;;;;;;;;;;0.70;99.70;;;;;;5107907;28;19949;-73
2024/01/21 02:55:26;;;;;;;;;;;0.70;99.60;;;;;;5109713;28;19924;-73
2024/01/21 02:57:52;;;;;;;;;;;0.70;99.60;;;;;;5109660;28;19923;-72
2024/01/21 03:00:18;;;;;;;;;;;0.70;99.80;;;;;;5109719;28;20021;-72
2024/01/21 03:02:43;;;;;;;;;;;0.70;99.70;;;;;;5109847;28;19920;-72
2024/01/21 03:05:09;;;;;;;;;;;0.70;99.70;;;;;;5109529;28;19934;-73
2024/01/21 03:07:34;;;;;;;;;;;0.70;99.90;;;;;;5108035;28;20310;-73
2024/01/21 03:10:00;;;;;;;;;;;0.70;99.80;;;;;;5109834;28;20313;-72
2024/01/21 03:12:25;;;;;;;;;;;0.70;99.70;;;;;;5103706;28;19924;-73
2024/01/21 03:14:51;;;;;;;;;;;0.70;99.60;;;;;;5103899;28;20386;-72
2024/01/21 03:17:16;;;;;;;;;;;0.70;99.60;;;;;;5110554;28;19923;-72
2024/01/21 03:19:42;;;;;;;;;;;0.70;99.30;;;;;;5111336;28;19923;-73
2024/01/21 03:22:07;;;;;;;;;;;0.80;99.20;;;;;;5108107;28;19928;-70
2024/01/21 03:24:33;;;;;;;;;;;0.80;99.10;;;;;;5109797;28;19948;-71
2024/01/21 03:26:59;;;;;;;;;;;0.80;99.20;;;;;;5100307;28;19924;-71
2024/01/21 03:29:24;;;;;;;;;;;0.80;99.10;;;;;;5107401;28;19923;-70
2024/01/21 03:31:50;;;;;;;;;;;0.80;99.10;;;;;;5089953;28;19928;-71
2024/01/21 03:34:15;;;;;;;;;;;0.80;99.00;;;;;;5089286;28;20452;-71
2024/01/21 03:36:41;;;;;;;;;;;0.80;98.90;;;;;;5101485;28;19930;-71
2024/01/21 03:39:07;;;;;;;;;;;1.20;98.70;;;;;;5109836;28;19924;-70
2024/01/21 03:41:33;;;;;;;;;;;0.80;98.30;;;;;;5109619;28;20041;-72
2024/01/21 03:43:58;;;;;;;;;;;0.80;98.50;;;;;;5108114;28;20015;-73
2024/01/21 03:46:24;;;;;;;;;;;0.80;98.60;;;;;;5109129;28;19935;-72
2024/01/21 03:48:49;;;;;;;;;;;0.80;98.50;;;;;;5109429;28;19946;-73
2024/01/21 03:51:15;;;;;;;;;;;0.80;98.70;;;;;;5106616;28;19931;-72
2024/01/21 03:53:41;;;;;;;;;;;0.80;98.30;;;;;;5109137;28;19927;-72
2024/01/21 03:56:07;;;;;;;;;;;0.80;98.20;;;;;;5108106;28;19923;-73
2024/01/21 03:58:32;;;;;;;;;;;0.80;98.20;;;;;;5086717;28;19928;-72
2024/01/21 04:00:58;;;;;;;;;;;0.80;98.40;;;;;;5103634;28;19920;-72
2024/01/21 04:03:24;;;;;;;;;;;0.80;98.20;;;;;;5108054;28;19931;-73
2024/01/21 04:05:50;;;;;;;;;;;0.80;98.00;;;;;;5107481;28;19923;-73
2024/01/21 04:08:16;;;;;;;;;;;0.80;98.00;;;;;;5094797;28;19927;-73
2024/01/21 04:10:42;;;;;;;;;;;0.80;98.10;;;;;;5110191;28;19924;-74
2024/01/21 04:13:08;;;;;;;;;;;0.80;98.00;;;;;;5121571;28;19999;-73
2024/01/21 04:15:34;;;;;;;;;;;0.80;98.00;;;;;;5094600;28;19924;-72
2024/01/21 04:18:00;;;;;;;;;;;0.80;97.90;;;;;;5100494;28;19923;-73
2024/01/21 04:20:25;;;;;;;;;;;0.80;97.80;;;;;;5111543;28;19949;-73
2024/01/21 04:22:51;;;;;;;;;;;0.90;98.00;;;;;;5112024;28;19976;-72
2024/01/21 04:25:16;;;;;;;;;;;0.90;97.80;;;;;;5111617;28;19935;-73
2024/01/21 04:27:42;;;;;;;;;;;0.90;97.90;;;;;;5112037;28;19992;-73
2024/01/21 04:30:07;;;;;;;;;;;0.90;98.10;;;;;;5111442;28;20066;-73
2024/01/21 04:32:33;;;;;;;;;;;0.90;98.10;;;;;;5110923;28;19927;-72
2024/01/21 04:34:58;;;;;;;;;;;0.90;98.00;;;;;;5110898;28;19932;-73
2024/01/21 04:37:24;;;;;;;;;;;0.90;97.60;;;;;;5111934;28;19970;-73
2024/01/21 04:39:49;;;;;;;;;;;0.90;97.90;;;;;;5111299;28;20294;-73
2024/01/21 04:42:15;;;;;;;;;;;0.90;97.80;;;;;;5112282;28;19956;-73
2024/01/21 04:44:40;;;;;;;;;;;0.90;97.60;;;;;;5111330;28;20316;-73
2024/01/21 04:47:06;;;;;;;;;;;0.90;97.60;;;;;;5090587;28;20032;-73
2024/01/21 04:49:31;;;;;;;;;;;0.90;97.70;;;;;;5100732;28;20034;-73
2024/01/21 04:51:57;;;;;;;;;;;1.00;97.30;;;;;;5111686;28;19935;-73
2024/01/21 04:54:23;;;;;;;;;;;1.00;97.30;;;;;;5110340;28;19972;-73
2024/01/21 04:56:48;;;;;;;;;;;1.00;97.00;;;;;;5129537;28;20402;-72
2024/01/21 04:59:14;;;;;;;;;;;1.00;97.10;;;;;;5111542;28;20014;-73
2024/01/21 05:01:40;;;;;;;;;;;1.10;96.90;;;;;;5104717;28;19930;-73
2024/01/21 05:04:06;;;;;;;;;;;1.10;97.00;;;;;;5105495;28;19928;-72
2024/01/21 05:06:31;;;;;;;;;;;1.10;97.20;;;;;;5130722;27;19984;-73
2024/01/21 05:08:57;;;;;;;;;;;1.10;96.80;;;;;;5129580;28;20122;-72
2024/01/21 05:11:22;;;;;;;;;;;1.10;96.80;;;;;;5111750;28;20427;-73
2024/01/21 05:13:48;;;;;;;;;;;1.10;96.50;;;;;;5107346;28;20705;-72
2024/01/21 05:16:13;;;;;;;;;;;1.20;96.40;;;;;;5108927;28;19962;-72
2024/01/21 05:18:39;;;;;;;;;;;1.20;96.60;;;;;;5128509;27;19931;-72
2024/01/21 05:21:05;;;;;;;;;;;1.10;96.00;;;;;;5113689;27;20314;-73
2024/01/21 05:23:31;;;;;;;;;;;1.20;96.10;;;;;;5115109;27;20401;-72
2024/01/21 05:25:57;;;;;;;;;;;1.20;95.50;;;;;;5114750;27;19923;-73
2024/01/21 05:28:22;;;;;;;;;;;1.20;95.50;;;;;;5113268;27;19960;-73
2024/01/21 05:30:48;;;;;;;;;;;3.10;96.40;;;;;;5114160;27;19994;-72
2024/01/21 05:33:13;;;;;;;;;;;1.30;96.10;;;;;;5114107;27;20063;-73
2024/01/21 05:35:39;;;;;;;;;;;1.30;96.00;;;;;;5114971;27;20446;-70
2024/01/21 05:38:05;;;;;;;;;;;1.30;95.70;;;;;;5114975;27;19984;-73
2024/01/21 05:40:30;;;;;;;;;;;1.30;95.50;;;;;;5133665;27;19924;-72
2024/01/21 05:42:56;;;;;;;;;;;1.30;95.80;;;;;;5130386;27;19939;-72
2024/01/21 05:45:22;;;;;;;;;;;1.30;95.60;;;;;;5111883;27;19949;-73
2024/01/21 05:47:48;;;;;;;;;;;1.30;95.40;;;;;;5103952;27;20310;-73
2024/01/21 05:50:14;;;;;;;;;;;1.30;95.10;;;;;;5114301;27;19924;-73
2024/01/21 05:52:39;;;;;;;;;;;1.30;95.10;;;;;;5114772;27;19953;-73
2024/01/21 05:55:05;;;;;;;;;;;1.80;95.80;;;;;;5113949;27;20331;-72
2024/01/21 05:57:30;;;;;;;;;;;1.30;95.20;;;;;;5114205;27;20117;-72
2024/01/21 05:59:56;;;;;;;;;;;3.00;95.00;;;;;;5113904;27;19976;-73
2024/01/21 06:02:21;;;;;;;;;;;1.40;95.20;;;;;;5099534;27;19924;-72
2024/01/21 06:04:48;;;;;;;;;;;1.40;94.30;;;;;;5113835;27;19927;-72
2024/01/21 06:07:14;;;;;;;;;;;1.40;94.20;;;;;;5114221;27;20400;-73
2024/01/21 06:09:39;;;;;;;;;;;1.50;94.80;;;;;;5114567;27;19920;-70
2024/01/21 06:12:05;;;;;;;;;;;1.50;94.40;;;;;;5113237;27;19931;-72
2024/01/21 06:14:30;;;;;;;;;;;1.50;94.40;;;;;;5111104;27;19955;-73
2024/01/21 06:16:59;;;;;;;;;;;1.50;94.30;;;;;;5129454;27;20423;-72
2024/01/21 06:19:24;;;;;;;;;;;1.60;94.50;;;;;;5132675;27;19924;-72
2024/01/21 06:21:50;;;;;;;;;;;1.60;94.60;;;;;;5113350;27;19926;-73
2024/01/21 06:24:17;;;;;;;;;;;1.60;94.10;;;;;;5132200;27;19930;-73
2024/01/21 06:26:43;;;;;;;;;;;1.60;94.00;;;;;;5114220;27;19928;-72
2024/01/21 06:29:08;;;;;;;;;;;1.60;93.70;;;;;;5113568;27;19930;-72
2024/01/21 06:31:34;;;;;;;;;;;1.60;93.90;;;;;;5112516;27;19950;-73
2024/01/21 06:34:00;;;;;;;;;;;2.10;94.60;;;;;;5113627;27;19923;-73
2024/01/21 06:36:26;;;;;;;;;;;1.60;93.80;;;;;;5109596;28;19919;-73
2024/01/21 06:38:51;;;;;;;;;;;1.60;94.20;;;;;;5097145;27;19923;-73
2024/01/21 06:41:17;;;;;;;;;;;1.60;94.40;;;;;;5114331;27;20367;-72
2024/01/21 06:43:42;;;;;;;;;;;1.60;93.90;;;;;;5132683;27;19924;-72
2024/01/21 06:46:08;;;;;;;;;;;1.50;93.50;;;;;;5110102;27;19975;-73
2024/01/21 06:48:34;;;;;;;;;;;1.60;93.70;;;;;;5132064;27;19920;-72
2024/01/21 06:51:10;;;;;;;;;;;1.50;94.30;;;;;;5131969;27;19923;-73
2024/01/21 06:53:36;;;;;;;;;;;1.60;94.40;;;;;;5105795;28;19950;-73
2024/01/21 06:56:06;;;;;;;;;;;1.50;94.40;;;;;;5092912;28;19931;-73
2024/01/21 06:58:35;;;;;;;;;;;1.50;94.40;;;;;;5105384;28;19924;-73
2024/01/21 07:01:01;;;;;;;;;;;1.50;93.90;;;;;;5099683;27;19923;-72
2024/01/21 07:03:27;;;;;;;;;;;1.50;94.00;;;;;;5102373;28;19923;-73
2024/01/21 07:05:53;;;;;;;;;;;1.50;94.10;;;;;;5104064;27;19931;-73
2024/01/21 07:08:19;;;;;;;;;;;1.50;94.00;;;;;;5111457;27;20430;-73
2024/01/21 07:10:44;;;;;;;;;;;1.50;94.20;;;;;;5112602;27;20006;-72
2024/01/21 07:13:10;;;;;;;;;;;1.50;94.10;;;;;;5130983;27;20021;-72
2024/01/21 07:15:36;;;;;;;;;;;1.50;94.30;;;;;;5124225;27;20301;-73
2024/01/21 07:18:02;;;;;;;;;;;1.50;94.40;;;;;;5094133;27;19923;-72
2024/01/21 07:20:28;;;;;;;;;;;1.50;94.30;;;;;;5112694;27;20006;-73
2024/01/21 07:22:55;;;;;;;;;;;1.50;94.10;;;;;;5112000;27;19930;-73
2024/01/21 07:25:21;;;;;;;;;;;1.50;94.50;;;;;;5113365;27;19948;-73
2024/01/21 07:27:47;;;;;;;;;;;1.50;94.30;;;;;;5129776;27;19927;-70
2024/01/21 07:30:12;;;;;;;;;;;1.50;94.10;;;;;;5118545;27;20007;-70
2024/01/21 07:32:39;;;;;;;;;;;1.50;94.70;;;;;;5107194;28;19982;-72
2024/01/21 07:35:05;;;;;;;;;;;1.50;94.40;;;;;;5107113;28;19928;-70
2024/01/21 07:37:30;;;;;;;;;;;1.50;94.30;;;;;;5110065;28;19953;-69
2024/01/21 07:39:56;;;;;;;;;;;1.50;94.40;;;;;;5108776;28;19924;-71
2024/01/21 07:42:21;;;;;;;;;;;1.50;94.30;;;;;;5108522;28;19955;-71
2024/01/21 07:44:47;;;;;;;;;;;1.50;94.60;;;;;;5103348;27;19950;-72
2024/01/21 07:47:13;;;;;;;;;;;1.80;95.00;;;;;;5130617;27;20375;-71
2024/01/21 07:49:38;;;;;;;;;;;1.50;94.30;;;;;;5127013;27;19964;-71
2024/01/21 07:52:04;;;;;;;;;;;1.50;93.60;;;;;;5129450;27;20368;-71
2024/01/21 07:54:29;;;;;;;;;;;1.50;94.20;;;;;;5103846;27;20010;-71
2024/01/21 07:56:55;;;;;;;;;;;1.50;94.30;;;;;;5105758;27;20363;-71
2024/01/21 07:59:20;;;;;;;;;;;1.50;94.70;;;;;;5115401;27;19930;-71
2024/01/21 08:01:46;;;;;;;;;;;1.50;95.00;;;;;;5111909;28;20313;-71
2024/01/21 08:04:11;;;;;;;;;;;1.50;94.90;;;;;;5125601;27;19926;-71
2024/01/21 08:06:37;;;;;;;;;;;1.50;95.00;;;;;;5128868;27;19935;-71
2024/01/21 08:09:03;;;;;;;;;;;1.50;95.30;;;;;;5129945;27;19919;-72
2024/01/21 08:11:29;;;;;;;;;;;1.00;95.10;;;;;;5107806;28;20018;-72
2024/01/21 08:13:54;;;;;;;;;;;1.50;95.20;;;;;;5106635;28;20038;-72
2024/01/21 08:16:20;;;;;;;;;;;1.50;95.40;;;;;;5104062;28;19924;-71
2024/01/21 08:18:46;;;;;;;;;;;1.50;95.40;;;;;;5086811;28;19931;-72
2024/01/21 08:21:11;;;;;;;;;;;1.50;94.80;;;;;;5098469;28;19934;-71
2024/01/21 08:23:40;;;;;;;;;;;1.80;95.40;;;;;;5108391;28;19931;-73
2024/01/21 08:26:05;;;;;;;;;;;1.50;95.60;;;;;;5108726;28;20398;-72
2024/01/21 08:28:31;;;;;;;;;;;1.60;95.40;;;;;;5108701;28;19920;-71
2024/01/21 08:30:56;;;;;;;;;;;1.60;95.50;;;;;;5105411;28;19932;-71
2024/01/21 08:33:22;;;;;;;;;;;1.60;95.20;;;;;;5094558;28;19924;-72
2024/01/21 08:35:47;;;;;;;;;;;1.60;95.30;;;;;;5106020;28;20034;-71
2024/01/21 08:38:13;;;;;;;;;;;1.70;95.40;;;;;;5109787;28;19924;-72
2024/01/21 08:40:39;;;;;;;;;;;1.70;95.50;;;;;;5107770;28;19931;-71
2024/01/21 08:43:04;;;;;;;;;;;1.70;95.50;;;;;;5108289;28;19935;-71
2024/01/21 08:45:30;;;;;;;;;;;1.70;95.80;;;;;;5108242;28;19924;-71
2024/01/21 08:47:55;;;;;;;;;;;1.70;95.90;;;;;;5108423;28;19931;-72
2024/01/21 08:50:21;;;;;;;;;;;1.70;96.00;;;;;;5105147;28;19924;-71
2024/01/21 08:52:46;;;;;;;;;;;1.70;96.20;;;;;;5105536;28;20375;-71
2024/01/21 08:55:12;;;;;;;;;;;1.70;96.00;;;;;;5111456;28;19924;-71
2024/01/21 08:57:38;;;;;;;;;;;1.90;96.10;;;;;;5110412;28;20018;-71
2024/01/21 09:00:05;;;;;;;;;;;1.80;96.10;;;;;;5108929;28;20188;-71
2024/01/21 09:02:30;;;;;;;;;;;1.80;96.40;;;;;;5110882;28;19932;-71
2024/01/21 09:04:56;;;;;;;;;;;1.80;96.30;;;;;;5106434;28;19928;-71
2024/01/21 09:07:21;;;;;;;;;;;1.90;96.00;;;;;;5110518;28;19946;-71
2024/01/21 09:09:47;;;;;;;;;;;3.70;96.50;;;;;;5111250;28;19962;-71
2024/01/21 09:12:14;;;;;;;;;;;1.90;96.20;;;;;;5112072;28;20001;-71
2024/01/21 09:14:41;;;;;;;;;;;1.90;96.30;;;;;;5111211;28;19927;-72
2024/01/21 09:17:06;;;;;;;;;;;1.90;96.50;;;;;;5107419;28;19924;-72
2024/01/21 09:19:32;;;;;;;;;;;1.90;96.60;;;;;;5107558;28;20294;-71
2024/01/21 09:21:57;;;;;;;;;;;1.90;96.80;;;;;;5111611;27;19934;-71
2024/01/21 09:24:23;;;;;;;;;;;1.90;97.00;;;;;;5111937;28;19977;-72
2024/01/21 09:26:48;;;;;;;;;;;2.00;97.00;;;;;;5111535;28;20285;-71
2024/01/21 09:29:14;;;;;;;;;;;3.70;97.50;;;;;;5110692;28;19928;-71
2024/01/21 09:31:40;;;;;;;;;;;2.20;97.30;;;;;;5110712;28;20218;-71
2024/01/21 09:34:05;;;;;;;;;;;2.10;97.20;;;;;;5108737;28;19923;-71
2024/01/21 09:36:31;;;;;;;;;;;2.10;97.70;;;;;;5111037;28;20287;-72
2024/01/21 09:38:56;;;;;;;;;;;2.10;97.20;;;;;;5111054;28;20406;-71
2024/01/21 09:41:30;;;;;;;;;;;2.20;97.10;;;;;;5109345;28;19923;-72
2024/01/21 09:43:55;;;;;;;;;;;2.20;97.50;;;;;;5111478;28;19924;-72
2024/01/21 09:46:21;;;;;;;;;;;2.20;97.60;;;;;;5110177;28;19923;-72
2024/01/21 09:48:47;;;;;;;;;;;2.30;97.70;;;;;;5108144;28;19927;-72
2024/01/21 09:51:13;;;;;;;;;;;2.30;97.80;;;;;;5110280;28;19928;-72
2024/01/21 09:53:39;;;;;;;;;;;2.30;97.80;;;;;;5110795;28;20100;-71
2024/01/21 09:56:07;;;;;;;;;;;2.40;97.80;;;;;;5110078;28;19936;-72
2024/01/21 09:58:33;;;;;;;;;;;2.40;97.70;;;;;;5109909;28;19969;-72
2024/01/21 10:00:59;;;;;;;;;;;2.50;97.60;;;;;;5110639;28;20392;-72
2024/01/21 10:03:25;;;;;;;;;;;2.50;97.80;;;;;;5111428;28;19963;-72
2024/01/21 10:05:50;;;;;;;;;;;2.80;98.00;;;;;;5106685;28;19962;-72
2024/01/21 10:08:16;;;;;;;;;;;2.60;97.80;;;;;;5108309;28;19928;-72
2024/01/21 10:10:42;;;;;;;;;;;2.70;98.10;;;;;;5111032;27;20034;-72
2024/01/21 10:13:08;;;;;;;;;;;2.70;98.10;;;;;;5113354;27;20396;-72
2024/01/21 10:15:33;;;;;;;;;;;2.80;98.20;;;;;;5112642;27;19995;-72
2024/01/21 10:17:59;;;;;;;;;;;2.80;98.00;;;;;;5108831;27;19919;-71
2024/01/21 10:20:25;;;;;;;;;;;4.30;98.60;;;;;;5093805;28;19930;-72
2024/01/21 10:22:50;;;;;;;;;;;2.90;98.50;;;;;;5129544;27;19919;-72
2024/01/21 10:25:16;;;;;;;;;;;4.50;99.00;;;;;;5113494;27;20322;-71
2024/01/21 10:27:45;;;;;;;;;;;3.00;98.60;;;;;;5097084;27;19973;-72
2024/01/21 10:30:12;;;;;;;;;;;3.00;98.80;;;;;;5117813;27;19927;-72
2024/01/21 10:32:37;;;;;;;;;;;3.10;99.10;;;;;;5107607;27;20383;-72
2024/01/21 10:35:03;;;;;;;;;;;3.20;99.40;;;;;;5135786;27;19937;-73
2024/01/21 10:37:30;;;;;;;;;;;3.30;99.50;;;;;;5128815;27;19946;-73
2024/01/21 10:39:56;;;;;;;;;;;5.10;99.90;;;;;;5112827;27;19927;-73
2024/01/21 10:42:22;;;;;;;;;;;3.40;99.60;;;;;;5112620;27;19923;-72
2024/01/21 10:44:47;;;;;;;;;;;3.40;99.70;;;;;;5111574;27;19976;-72
2024/01/21 10:47:14;;;;;;;;;;;3.40;99.70;;;;;;5110481;27;19970;-73
2024/01/21 10:49:40;;;;;;;;;;;4.10;99.90;;;;;;5123672;27;19946;-72
2024/01/21 10:52:11;;;;;;;;;;;3.40;99.90;;;;;;5122866;27;19931;-72
2024/01/21 10:54:37;;;;;;;;;;;3.40;99.90;;;;;;5111966;27;19959;-73
2024/01/21 10:57:02;;;;;;;;;;;3.50;99.90;;;;;;5124016;27;19927;-72
2024/01/21 10:59:30;;;;;;;;;;;3.50;99.90;;;;;;5104616;28;19927;-72
2024/01/21 11:01:56;;;;;;;;;;;3.70;99.90;;;;;;5107100;28;20383;-72
2024/01/21 11:04:22;;;;;;;;;;;3.50;99.90;;;;;;5106029;27;19923;-72
2024/01/21 11:06:48;;;;;;;;;;;3.50;99.90;;;;;;5130784;27;19966;-74
2024/01/21 11:09:16;;;;;;;;;;;5.00;99.90;;;;;;5112944;27;20467;-72
2024/01/21 11:11:51;;;;;;;;;;;3.60;99.90;;;;;;5111341;27;19976;-72
2024/01/21 11:14:33;;;;;;;;;;;3.60;99.90;;;;;;5109177;28;20011;-72
2024/01/21 11:17:03;;;;;;;;;;;3.60;99.90;;;;;;5109876;27;19954;-73
2024/01/21 11:19:47;;;;;;;;;;;3.60;99.90;;;;;;5105523;27;19923;-73
2024/01/21 11:22:13;;;;;;;;;;;3.70;99.90;;;;;;5109566;27;19923;-72
2024/01/21 11:24:40;;;;;;;;;;;3.70;99.90;;;;;;5112399;27;19923;-72
2024/01/21 11:27:14;;;;;;;;;;;3.70;99.90;;;;;;5111111;27;19923;-72
2024/01/21 11:29:41;;;;;;;;;;;3.80;99.90;;;;;;5110271;27;20044;-72
2024/01/21 11:32:08;;;;;;;;;;;3.80;99.90;;;;;;5112000;27;20348;-72
2024/01/21 11:34:38;;;;;;;;;;;3.80;99.90;;;;;;5130017;27;20006;-72
2024/01/21 11:37:04;;;;;;;;;;;3.90;99.90;;;;;;5111542;27;19931;-71
2024/01/21 11:39:30;;;;;;;;;;;3.90;99.90;;;;;;5111228;27;20268;-72
2024/01/21 11:41:55;;;;;;;;;;;4.20;99.90;;;;;;5108576;27;19966;-71
2024/01/21 11:44:22;;;;;;;;;;;4.00;99.90;;;;;;5110939;27;19923;-72
2024/01/21 11:46:48;;;;;;;;;;;4.00;99.90;;;;;;5108362;28;20044;-72
2024/01/21 11:49:13;;;;;;;;;;;4.00;99.90;;;;;;5117934;27;19931;-71
2024/01/21 11:51:39;;;;;;;;;;;4.10;99.90;;;;;;5124504;27;20397;-72
2024/01/21 11:54:05;;;;;;;;;;;4.10;99.90;;;;;;5111733;27;19927;-72
2024/01/21 11:56:31;;;;;;;;;;;4.00;99.90;;;;;;5112001;27;20413;-72
2024/01/21 11:58:57;;;;;;;;;;;4.40;99.90;;;;;;5110435;27;19931;-70
2024/01/21 12:01:24;;;;;;;;;;;4.10;99.90;;;;;;5129603;27;19931;-71
2024/01/21 12:03:49;;;;;;;;;;;4.10;99.90;;;;;;5128157;27;19970;-73
2024/01/21 12:06:16;;;;;;;;;;;4.10;99.90;;;;;;5112005;28;19974;-72
2024/01/21 12:08:44;;;;;;;;;;;4.90;99.90;;;;;;5088816;28;19958;-71
2024/01/21 12:11:10;;;;;;;;;;;4.10;99.90;;;;;;5126885;27;20005;-70
2024/01/21 12:13:37;;;;;;;;;;;4.10;99.90;;;;;;5109223;27;19999;-70
2024/01/21 12:16:03;;;;;;;;;;;4.10;99.90;;;;;;5107492;28;19931;-71
2024/01/21 12:18:28;;;;;;;;;;;4.10;99.90;;;;;;5124695;28;19930;-70
2024/01/21 12:20:55;;;;;;;;;;;4.00;99.90;;;;;;5106341;28;19923;-70
2024/01/21 12:23:21;;;;;;;;;;;4.00;99.90;;;;;;5110141;27;20290;-70
2024/01/21 12:25:49;;;;;;;;;;;4.10;99.90;;;;;;5124600;27;19931;-70
2024/01/21 12:28:15;;;;;;;;;;;4.20;99.90;;;;;;5130810;27;19924;-71
2024/01/21 12:30:40;;;;;;;;;;;4.00;99.90;;;;;;5113636;27;19930;-70
2024/01/21 12:33:06;;;;;;;;;;;4.00;99.90;;;;;;5113580;27;19930;-70
2024/01/21 12:35:31;;;;;;;;;;;4.00;99.90;;;;;;5114969;27;19945;-71
2024/01/21 12:37:59;;;;;;;;;;;4.00;99.90;;;;;;5129566;27;20390;-71
2024/01/21 12:40:25;;;;;;;;;;;4.00;99.90;;;;;;5102336;27;20400;-70
2024/01/21 12:42:51;;;;;;;;;;;4.00;99.90;;;;;;5112915;27;19970;-71
2024/01/21 12:45:16;;;;;;;;;;;4.10;99.90;;;;;;5127952;27;19971;-70
2024/01/21 12:47:43;;;;;;;;;;;4.10;99.90;;;;;;5114172;27;20018;-70
2024/01/21 12:50:09;;;;;;;;;;;4.10;99.90;;;;;;5114003;27;19931;-71
2024/01/21 12:52:35;;;;;;;;;;;4.10;99.90;;;;;;5115263;27;19927;-70
2024/01/21 12:55:01;;;;;;;;;;;4.10;99.90;;;;;;5119870;27;19924;-70
2024/01/21 12:57:27;;;;;;;;;;;4.10;99.90;;;;;;5116272;27;19935;-70
2024/01/21 12:59:52;;;;;;;;;;;4.10;99.90;;;;;;5106861;28;19967;-70
2024/01/21 13:02:18;;;;;;;;;;;4.30;99.90;;;;;;5122382;27;19923;-70
2024/01/21 13:04:44;;;;;;;;;;;4.10;99.90;;;;;;5111807;27;20014;-71
2024/01/21 13:07:09;;;;;;;;;;;4.20;99.90;;;;;;5114427;27;19945;-70
2024/01/21 13:09:35;;;;;;;;;;;4.20;99.90;;;;;;5114217;27;20273;-71
2024/01/21 13:12:01;;;;;;;;;;;4.10;99.90;;;;;;5112952;27;19928;-70
2024/01/21 13:14:26;;;;;;;;;;;4.20;99.90;;;;;;5114504;27;19927;-71
2024/01/21 13:16:52;;;;;;;;;;;4.20;99.90;;;;;;5114405;27;19924;-71
2024/01/21 13:19:17;;;;;;;;;;;4.20;99.90;;;;;;5114281;27;19938;-70
2024/01/21 13:21:43;;;;;;;;;;;4.20;99.90;;;;;;5119659;27;19924;-71
2024/01/21 13:24:09;;;;;;;;;;;4.20;99.90;;;;;;5120040;27;20019;-71
2024/01/21 13:26:40;;;;;;;;;;;4.20;99.90;;;;;;5109617;27;19924;-71
2024/01/21 13:31:34;;;;;;;;;;;4.30;99.90;;;;;;5123973;27;19935;-72
2024/01/21 13:34:01;;;;;;;;;;;4.30;99.90;;;;;;5109204;27;20298;-71
2024/01/21 13:36:34;;;;;;;;;;;4.30;99.90;;;;;;5115274;27;19927;-71
2024/01/21 13:38:59;;;;;;;;;;;4.30;99.90;;;;;;5113741;27;19954;-71
2024/01/21 13:41:25;;;;;;;;;;;4.30;99.90;;;;;;5102986;28;19962;-71
2024/01/21 13:43:51;;;;;;;;;;;4.30;99.90;;;;;;5101658;27;19924;-71
2024/01/21 13:46:16;;;;;;;;;;;4.50;99.90;;;;;;5131155;27;19988;-71
2024/01/21 13:48:42;;;;;;;;;;;4.30;99.90;;;;;;5113808;27;19923;-71
2024/01/21 13:51:09;;;;;;;;;;;4.30;99.90;;;;;;5113527;27;20014;-71
2024/01/21 13:53:36;;;;;;;;;;;4.30;99.90;;;;;;5113934;27;19924;-72
2024/01/21 13:56:01;;;;;;;;;;;4.30;99.90;;;;;;5131809;27;19934;-71
2024/01/21 13:58:27;;;;;;;;;;;4.20;99.90;;;;;;5110332;28;20298;-72
2024/01/21 14:00:52;;;;;;;;;;;4.30;99.90;;;;;;5120769;27;19926;-71
2024/01/21 14:03:18;;;;;;;;;;;4.30;99.90;;;;;;5105790;27;19934;-71
2024/01/21 14:05:43;;;;;;;;;;;4.30;99.90;;;;;;5132419;27;19923;-72
2024/01/21 14:08:10;;;;;;;;;;;4.30;99.90;;;;;;5114551;27;20031;-71
2024/01/21 14:10:35;;;;;;;;;;;4.50;99.90;;;;;;5113787;27;19935;-71
2024/01/21 14:13:01;;;;;;;;;;;4.30;99.90;;;;;;5113784;27;19931;-72
2024/01/21 14:15:26;;;;;;;;;;;4.30;99.90;;;;;;5111720;27;19928;-73
2024/01/21 14:17:52;;;;;;;;;;;4.40;99.90;;;;;;5112550;27;19945;-85
2024/01/21 14:20:18;;;;;;;;;;;4.30;99.90;;;;;;5108574;28;20039;-72
2024/01/21 14:22:44;;;;;;;;;;;4.40;99.90;;;;;;5103489;27;19931;-71
2024/01/21 14:25:22;;;;;;;;;;;4.40;99.90;;;;;;5111201;27;20015;-72